createdAt,value
2023-09-18T00:04:37.345Z,0.00
2023-09-18T00:09:37.288Z,0.00
2023-09-18T00:14:37.190Z,0.00
2023-09-18T00:19:37.256Z,0.00
2023-09-18T00:24:37.056Z,0.00
2023-09-18T00:29:37.024Z,0.00
2023-09-18T00:34:36.964Z,0.00
2023-09-18T00:39:36.904Z,0.00
2023-09-18T00:44:36.812Z,0.00
2023-09-18T00:49:36.759Z,0.00
2023-09-18T00:54:36.692Z,0.00
2023-09-18T00:59:39.615Z,0.00
2023-09-18T01:04:36.537Z,0.00
2023-09-18T01:09:36.525Z,0.00
2023-09-18T01:14:36.466Z,0.00
2023-09-18T01:19:36.425Z,0.00
2023-09-18T01:24:36.276Z,0.00
2023-09-18T01:29:36.319Z,0.00
2023-09-18T01:34:36.140Z,0.00
2023-09-18T01:39:36.122Z,0.00
2023-09-18T01:44:36.042Z,0.00
2023-09-18T01:49:35.970Z,0.00
2023-09-18T01:54:35.891Z,0.00
2023-09-18T01:59:38.860Z,0.00
2023-09-18T02:05:05.753Z,0.00
2023-09-18T02:09:36.729Z,0.00
2023-09-18T02:14:35.638Z,0.00
2023-09-18T02:19:35.572Z,0.00
2023-09-18T02:24:35.470Z,0.00
2023-09-18T02:29:35.794Z,0.00
2023-09-18T02:34:35.353Z,0.00
2023-09-18T02:39:35.324Z,0.00
2023-09-18T02:44:35.295Z,0.00
2023-09-18T02:49:35.186Z,0.00
2023-09-18T02:54:35.112Z,0.00
2023-09-18T02:59:38.118Z,0.00
2023-09-18T03:04:34.944Z,0.00
2023-09-18T03:09:34.913Z,0.00
2023-09-18T03:14:34.854Z,0.00
2023-09-18T03:19:34.788Z,0.00
2023-09-18T03:24:34.688Z,0.00
2023-09-18T03:29:34.727Z,0.00
2023-09-18T03:34:34.547Z,0.00
2023-09-18T03:39:34.754Z,0.00
2023-09-18T03:44:34.428Z,0.00
2023-09-18T03:49:34.397Z,0.00
2023-09-18T03:54:34.263Z,0.00
2023-09-18T03:59:37.303Z,0.00
2023-09-18T04:04:34.188Z,0.00
2023-09-18T04:09:34.136Z,0.00
2023-09-18T04:14:34.061Z,0.00
2023-09-18T04:19:34.015Z,0.00
2023-09-18T04:24:33.885Z,4.00
2023-09-18T04:29:33.892Z,8.00
2023-09-18T04:34:33.765Z,20.00
2023-09-18T04:39:33.771Z,52.00
2023-09-18T04:44:33.670Z,96.00
2023-09-18T04:49:33.693Z,172.00
2023-09-18T04:54:33.533Z,272.00
2023-09-18T04:59:36.572Z,368.00
2023-09-18T05:04:33.369Z,500.00
2023-09-18T05:09:33.337Z,712.00
2023-09-18T05:14:33.336Z,872.00
2023-09-18T05:19:33.230Z,968.00
2023-09-18T05:24:33.161Z,1236.00
2023-09-18T05:29:33.115Z,1840.00
2023-09-18T05:34:33.829Z,4584.00
2023-09-18T05:39:40.168Z,5928.00
2023-09-18T05:44:32.903Z,6864.00
2023-09-18T05:49:32.848Z,7364.00
2023-09-18T05:54:32.877Z,7908.00
2023-09-18T05:59:36.007Z,8348.00
2023-09-18T06:04:32.608Z,10656.00
2023-09-18T06:09:32.591Z,12368.00
2023-09-18T06:14:32.466Z,8172.00
2023-09-18T06:19:32.494Z,5624.00
2023-09-18T06:24:32.376Z,4860.00
2023-09-18T06:29:32.406Z,3992.00
2023-09-18T06:34:39.589Z,3892.00
2023-09-18T06:39:32.117Z,4004.00
2023-09-18T06:44:32.129Z,2880.00
2023-09-18T06:49:32.187Z,2764.00
2023-09-18T06:54:32.020Z,2484.00
2023-09-18T06:59:35.512Z,2068.00
2023-09-18T07:04:31.836Z,2168.00
2023-09-18T07:09:33.595Z,2724.00
2023-09-18T07:14:31.727Z,3920.00
2023-09-18T07:19:31.658Z,3688.00
2023-09-18T07:24:31.556Z,5732.00
2023-09-18T07:29:38.819Z,8208.00
2023-09-18T07:34:31.382Z,11172.00
2023-09-18T07:39:31.382Z,10480.00
2023-09-18T07:44:31.283Z,12436.00
2023-09-18T07:49:31.250Z,9824.00
2023-09-18T07:54:31.268Z,7808.00
2023-09-18T07:59:34.171Z,8440.00
2023-09-18T08:04:31.034Z,7308.00
2023-09-18T08:09:31.058Z,5560.00
2023-09-18T08:14:30.987Z,8152.00
2023-09-18T08:19:30.947Z,8336.00
2023-09-18T08:24:38.197Z,7592.00
2023-09-18T08:29:30.763Z,8888.00
2023-09-18T08:34:30.679Z,5732.00
2023-09-18T08:39:30.604Z,4132.00
2023-09-18T08:44:30.637Z,6096.00
2023-09-18T08:49:30.696Z,6572.00
2023-09-18T08:54:30.581Z,5916.00
2023-09-18T08:59:33.587Z,4172.00
2023-09-18T09:04:30.317Z,3752.00
2023-09-18T09:09:30.225Z,4688.00
2023-09-18T09:14:30.398Z,6864.00
2023-09-18T09:19:30.097Z,9824.00
2023-09-18T09:24:30.017Z,11824.00
2023-09-18T09:29:30.229Z,11048.00
2023-09-18T09:34:29.866Z,13064.00
2023-09-18T09:39:29.879Z,11472.00
2023-09-18T09:44:29.776Z,10216.00
2023-09-18T09:49:29.692Z,7916.00
2023-09-18T09:54:29.593Z,8836.00
2023-09-18T09:59:32.583Z,6208.00
2023-09-18T10:04:29.487Z,8432.00
2023-09-18T10:09:29.420Z,8020.00
2023-09-18T10:14:29.366Z,8824.00
2023-09-18T10:19:29.384Z,8040.00
2023-09-18T10:24:29.196Z,7928.00
2023-09-18T10:29:29.220Z,8856.00
2023-09-18T10:34:29.146Z,12460.00
2023-09-18T10:39:31.270Z,10668.00
2023-09-18T10:44:29.012Z,10488.00
2023-09-18T10:49:28.875Z,7120.00
2023-09-18T10:54:28.841Z,5268.00
2023-09-18T10:59:31.836Z,6676.00
2023-09-18T11:04:28.704Z,7868.00
2023-09-18T11:09:28.724Z,9452.00
2023-09-18T11:14:28.554Z,7228.00
2023-09-18T11:19:28.652Z,5760.00
2023-09-18T11:24:28.481Z,5456.00
2023-09-18T11:29:28.647Z,5724.00
2023-09-18T11:34:28.336Z,6052.00
2023-09-18T11:39:28.342Z,5108.00
2023-09-18T11:44:37.959Z,6456.00
2023-09-18T11:49:28.123Z,6904.00
2023-09-18T11:54:28.041Z,7220.00
2023-09-18T11:59:31.004Z,5504.00
2023-09-18T12:04:28.098Z,9988.00
2023-09-18T12:09:29.086Z,9924.00
2023-09-18T12:14:27.760Z,10132.00
2023-09-18T12:19:27.726Z,12780.00
2023-09-18T12:24:27.622Z,10332.00
2023-09-18T12:29:27.624Z,8608.00
2023-09-18T12:34:27.567Z,8612.00
2023-09-18T12:39:27.887Z,6408.00
2023-09-18T12:44:27.402Z,6356.00
2023-09-18T12:49:27.386Z,6584.00
2023-09-18T12:54:27.236Z,5840.00
2023-09-18T12:59:30.268Z,5468.00
2023-09-18T13:04:27.152Z,5116.00
2023-09-18T13:09:27.163Z,4964.00
2023-09-18T13:14:34.396Z,3440.00
2023-09-18T13:19:26.902Z,3284.00
2023-09-18T13:24:27.086Z,4388.00
2023-09-18T13:29:26.836Z,4392.00
2023-09-18T13:34:26.796Z,3588.00
2023-09-18T13:39:26.621Z,4304.00
2023-09-18T13:44:26.715Z,5712.00
2023-09-18T13:49:28.752Z,4792.00
2023-09-18T13:54:26.511Z,4932.00
2023-09-18T13:59:29.556Z,4540.00
2023-09-18T14:04:26.353Z,4120.00
2023-09-18T14:09:26.305Z,4396.00
2023-09-18T14:14:26.202Z,4616.00
2023-09-18T14:19:26.159Z,4856.00
2023-09-18T14:24:26.065Z,4884.00
2023-09-18T14:29:26.075Z,5860.00
2023-09-18T14:34:25.926Z,6648.00
2023-09-18T14:39:25.936Z,6564.00
2023-09-18T14:44:25.763Z,6628.00
2023-09-18T14:49:33.202Z,6512.00
2023-09-18T14:54:25.649Z,6824.00
2023-09-18T14:59:41.542Z,6848.00
2023-09-18T15:04:26.539Z,6320.00
2023-09-18T15:09:25.533Z,6604.00
2023-09-18T15:14:25.558Z,7580.00
2023-09-18T15:19:25.378Z,6672.00
2023-09-18T15:24:25.277Z,6144.00
2023-09-18T15:29:25.323Z,5112.00
2023-09-18T15:34:32.552Z,3492.00
2023-09-18T15:39:25.046Z,2716.00
2023-09-18T15:44:25.055Z,2496.00
2023-09-18T15:49:24.985Z,2852.00
2023-09-18T15:54:25.298Z,3060.00
2023-09-18T15:59:27.926Z,2552.00
2023-09-18T16:04:24.935Z,1924.00
2023-09-18T16:09:24.865Z,1928.00
2023-09-18T16:14:24.648Z,2296.00
2023-09-18T16:19:31.856Z,1956.00
2023-09-18T16:24:24.462Z,1576.00
2023-09-18T16:29:24.492Z,1100.00
2023-09-18T16:34:24.361Z,936.00
2023-09-18T16:39:24.349Z,1004.00
2023-09-18T16:44:24.316Z,852.00
2023-09-18T16:49:24.227Z,956.00
2023-09-18T16:54:24.114Z,1036.00
2023-09-18T16:59:27.323Z,908.00
2023-09-18T17:04:24.015Z,724.00
2023-09-18T17:09:23.924Z,536.00
2023-09-18T17:14:23.803Z,320.00
2023-09-18T17:19:23.771Z,200.00
2023-09-18T17:24:23.669Z,116.00
2023-09-18T17:29:23.639Z,68.00
2023-09-18T17:34:23.555Z,36.00
2023-09-18T17:39:23.532Z,12.00
2023-09-18T17:44:23.402Z,8.00
2023-09-18T17:49:23.426Z,0.00
2023-09-18T17:54:23.308Z,0.00
2023-09-18T17:59:26.296Z,0.00
2023-09-18T18:04:23.205Z,0.00
2023-09-18T18:09:23.412Z,0.00
2023-09-18T18:14:23.002Z,0.00
2023-09-18T18:19:23.008Z,0.00
2023-09-18T18:24:22.964Z,0.00
2023-09-18T18:29:22.881Z,0.00
2023-09-18T18:34:22.766Z,0.00
2023-09-18T18:39:22.787Z,0.00
2023-09-18T18:44:22.681Z,0.00
2023-09-18T18:49:22.629Z,0.00
2023-09-18T18:54:22.549Z,0.00
2023-09-18T18:59:25.482Z,0.00
2023-09-18T19:04:22.615Z,0.00
2023-09-18T19:09:22.315Z,0.00
2023-09-18T19:14:22.273Z,0.00
2023-09-18T19:19:22.348Z,0.00
2023-09-18T19:24:23.023Z,0.00
2023-09-18T19:29:22.107Z,0.00
2023-09-18T19:34:21.994Z,0.00
2023-09-18T19:39:22.410Z,0.00
2023-09-18T19:44:21.849Z,0.00
2023-09-18T19:49:21.821Z,0.00
2023-09-18T19:54:21.707Z,0.00
2023-09-18T19:59:24.706Z,0.00
2023-09-18T20:04:21.975Z,0.00
2023-09-18T20:09:21.540Z,0.00
2023-09-18T20:14:31.052Z,0.00
2023-09-18T20:19:22.644Z,0.00
2023-09-18T20:24:21.308Z,0.00
2023-09-18T20:29:21.312Z,0.00
2023-09-18T20:34:21.166Z,0.00
2023-09-18T20:39:21.169Z,0.00
2023-09-18T20:44:21.079Z,0.00
2023-09-18T20:49:21.023Z,0.00
2023-09-18T20:54:20.947Z,0.00
2023-09-18T20:59:23.876Z,0.00
2023-09-18T21:04:20.937Z,0.00
2023-09-18T21:09:20.776Z,0.00
2023-09-18T21:14:20.671Z,0.00
2023-09-18T21:19:20.719Z,0.00
2023-09-18T21:24:20.568Z,0.00
2023-09-18T21:29:20.639Z,0.00
2023-09-18T21:34:20.414Z,0.00
2023-09-18T21:39:20.402Z,0.00
2023-09-18T21:44:20.302Z,0.00
2023-09-18T21:49:20.226Z,0.00
2023-09-18T21:54:20.195Z,0.00
2023-09-18T21:59:23.102Z,0.00
2023-09-18T22:09:19.995Z,0.00
2023-09-18T22:14:19.890Z,0.00
2023-09-18T22:19:19.846Z,0.00
2023-09-18T22:24:19.732Z,0.00
2023-09-18T22:29:19.774Z,0.00
2023-09-18T22:34:19.621Z,0.00
2023-09-18T22:39:20.618Z,0.00
2023-09-18T22:44:19.455Z,0.00
2023-09-18T22:49:19.428Z,0.00
2023-09-18T22:54:19.406Z,0.00
2023-09-18T22:59:22.345Z,0.00
2023-09-18T23:04:19.251Z,0.00
2023-09-18T23:09:19.177Z,0.00
2023-09-18T23:14:19.076Z,0.00
2023-09-18T23:19:19.086Z,0.00
2023-09-18T23:24:18.970Z,0.00
2023-09-18T23:29:18.926Z,0.00
2023-09-18T23:34:18.889Z,0.00
2023-09-18T23:39:18.790Z,0.00
2023-09-18T23:44:18.688Z,0.00
2023-09-18T23:49:18.972Z,0.00
2023-09-18T23:54:18.561Z,0.00
2023-09-18T23:59:21.521Z,0.00
